sensor_id;sensor_type;location;lat;lon;timestamp;P1;durP1;ratioP1;P2;durP2;ratioP2
21492;SDS011;10908;50.690;4.400;2023-02-11T12:17:51;81.30;;;30.80;;
21492;SDS011;10908;50.690;4.400;2023-02-11T12:25:44;74.40;;;30.40;;
21492;SDS011;10908;50.690;4.400;2023-02-11T12:28:25;79.30;;;30.52;;
21492;SDS011;10908;50.690;4.400;2023-02-11T12:33:41;75.47;;;30.45;;
21492;SDS011;10908;50.690;4.400;2023-02-11T12:39:00;80.75;;;30.10;;
21492;SDS011;10908;50.690;4.400;2023-02-11T12:41:39;74.70;;;30.80;;
21492;SDS011;10908;50.690;4.400;2023-02-11T12:44:38;72.10;;;29.15;;
21492;SDS011;10908;50.690;4.400;2023-02-11T12:47:27;71.72;;;28.40;;
21492;SDS011;10908;50.690;4.400;2023-02-11T12:50:19;69.80;;;29.55;;
21492;SDS011;10908;50.690;4.400;2023-02-11T12:53:27;71.55;;;29.42;;
21492;SDS011;10908;50.690;4.400;2023-02-11T12:55:57;74.05;;;30.10;;
21492;SDS011;10908;50.690;4.400;2023-02-11T12:58:28;73.47;;;29.80;;
21492;SDS011;10908;50.690;4.400;2023-02-11T13:00:57;77.30;;;30.88;;
21492;SDS011;10908;50.690;4.400;2023-02-11T13:03:30;71.68;;;29.95;;
21492;SDS011;10908;50.690;4.400;2023-02-11T13:06:04;73.32;;;31.88;;
21492;SDS011;10908;50.690;4.400;2023-02-11T13:24:33;76.55;;;31.08;;
21492;SDS011;10908;50.690;4.400;2023-02-11T13:32:27;72.15;;;31.35;;
21492;SDS011;10908;50.690;4.400;2023-02-11T13:35:26;74.75;;;30.48;;
21492;SDS011;10908;50.690;4.400;2023-02-11T13:37:55;69.95;;;29.73;;
21492;SDS011;10908;50.690;4.400;2023-02-11T13:40:26;71.07;;;31.77;;
21492;SDS011;10908;50.690;4.400;2023-02-11T13:42:55;66.78;;;30.38;;
21492;SDS011;10908;50.690;4.400;2023-02-11T13:50:53;66.93;;;30.27;;
21492;SDS011;10908;50.690;4.400;2023-02-11T13:53:21;69.80;;;29.92;;
21492;SDS011;10908;50.690;4.400;2023-02-11T13:55:51;62.72;;;30.05;;
21492;SDS011;10908;50.690;4.400;2023-02-11T14:00:54;65.60;;;30.60;;
21492;SDS011;10908;50.690;4.400;2023-02-11T14:06:16;69.10;;;30.85;;
21492;SDS011;10908;50.690;4.400;2023-02-11T14:17:15;70.28;;;31.42;;
21492;SDS011;10908;50.690;4.400;2023-02-11T14:19:43;70.45;;;31.02;;
21492;SDS011;10908;50.690;4.400;2023-02-11T14:24:58;70.28;;;31.75;;
21492;SDS011;10908;50.690;4.400;2023-02-11T14:30:08;71.97;;;31.52;;
21492;SDS011;10908;50.690;4.400;2023-02-11T14:33:01;72.25;;;32.25;;
21492;SDS011;10908;50.690;4.400;2023-02-11T14:35:47;64.72;;;31.75;;
21492;SDS011;10908;50.690;4.400;2023-02-11T14:41:17;71.95;;;32.03;;
21492;SDS011;10908;50.690;4.400;2023-02-11T14:43:44;67.28;;;31.38;;
21492;SDS011;10908;50.690;4.400;2023-02-11T14:46:13;76.63;;;33.63;;
21492;SDS011;10908;50.690;4.400;2023-02-11T14:48:42;68.28;;;32.25;;
21492;SDS011;10908;50.690;4.400;2023-02-11T14:53:45;71.88;;;32.60;;
21492;SDS011;10908;50.690;4.400;2023-02-11T14:56:24;67.75;;;31.80;;
21492;SDS011;10908;50.690;4.400;2023-02-11T14:58:52;69.68;;;31.23;;
21492;SDS011;10908;50.690;4.400;2023-02-11T15:01:32;70.80;;;32.35;;
21492;SDS011;10908;50.690;4.400;2023-02-11T15:04:02;69.35;;;32.58;;
21492;SDS011;10908;50.690;4.400;2023-02-11T15:06:30;71.22;;;32.72;;
21492;SDS011;10908;50.690;4.400;2023-02-11T15:09:13;66.72;;;31.67;;
21492;SDS011;10908;50.690;4.400;2023-02-11T15:11:44;70.05;;;33.00;;
21492;SDS011;10908;50.690;4.400;2023-02-11T15:14:17;68.13;;;31.95;;
21492;SDS011;10908;50.690;4.400;2023-02-11T15:17:01;68.72;;;31.80;;
21492;SDS011;10908;50.690;4.400;2023-02-11T15:22:00;77.43;;;33.58;;
21492;SDS011;10908;50.690;4.400;2023-02-11T15:24:29;72.45;;;32.75;;
21492;SDS011;10908;50.690;4.400;2023-02-11T15:27:08;76.20;;;34.08;;
21492;SDS011;10908;50.690;4.400;2023-02-11T15:29:47;77.35;;;34.30;;
21492;SDS011;10908;50.690;4.400;2023-02-11T15:32:19;70.95;;;34.83;;
21492;SDS011;10908;50.690;4.400;2023-02-11T15:34:46;71.75;;;33.25;;
21492;SDS011;10908;50.690;4.400;2023-02-11T15:37:23;75.00;;;34.78;;
21492;SDS011;10908;50.690;4.400;2023-02-11T15:39:52;70.15;;;32.65;;
21492;SDS011;10908;50.690;4.400;2023-02-11T15:45:23;69.28;;;33.95;;
21492;SDS011;10908;50.690;4.400;2023-02-11T15:47:54;75.53;;;34.60;;
21492;SDS011;10908;50.690;4.400;2023-02-11T15:50:30;77.28;;;33.97;;
21492;SDS011;10908;50.690;4.400;2023-02-11T15:52:59;66.57;;;32.70;;
21492;SDS011;10908;50.690;4.400;2023-02-11T15:55:27;74.20;;;33.80;;
21492;SDS011;10908;50.690;4.400;2023-02-11T15:57:58;69.40;;;33.47;;
21492;SDS011;10908;50.690;4.400;2023-02-11T16:00:28;71.07;;;33.42;;
21492;SDS011;10908;50.690;4.400;2023-02-11T16:02:59;71.57;;;33.05;;
21492;SDS011;10908;50.690;4.400;2023-02-11T16:07:57;74.55;;;34.85;;
21492;SDS011;10908;50.690;4.400;2023-02-11T16:10:32;76.68;;;34.97;;
21492;SDS011;10908;50.690;4.400;2023-02-11T16:18:20;71.97;;;31.65;;
21492;SDS011;10908;50.690;4.400;2023-02-11T16:20:58;74.47;;;35.10;;
21492;SDS011;10908;50.690;4.400;2023-02-11T16:23:27;71.93;;;34.42;;
21492;SDS011;10908;50.690;4.400;2023-02-11T16:26:03;77.63;;;35.85;;
21492;SDS011;10908;50.690;4.400;2023-02-11T16:28:33;69.50;;;33.70;;
21492;SDS011;10908;50.690;4.400;2023-02-11T16:31:00;78.75;;;34.83;;
21492;SDS011;10908;50.690;4.400;2023-02-11T16:33:27;80.57;;;38.05;;
21492;SDS011;10908;50.690;4.400;2023-02-11T16:35:53;80.63;;;37.45;;
21492;SDS011;10908;50.690;4.400;2023-02-11T16:38:19;87.13;;;37.08;;
21492;SDS011;10908;50.690;4.400;2023-02-11T16:40:45;81.25;;;38.13;;
21492;SDS011;10908;50.690;4.400;2023-02-11T16:43:13;73.47;;;35.20;;
21492;SDS011;10908;50.690;4.400;2023-02-11T16:45:41;78.13;;;37.20;;
21492;SDS011;10908;50.690;4.400;2023-02-11T16:48:07;74.88;;;35.10;;
21492;SDS011;10908;50.690;4.400;2023-02-11T16:50:36;73.13;;;34.70;;
21492;SDS011;10908;50.690;4.400;2023-02-11T16:53:05;78.20;;;35.17;;
21492;SDS011;10908;50.690;4.400;2023-02-11T16:55:33;79.18;;;36.67;;
21492;SDS011;10908;50.690;4.400;2023-02-11T16:58:00;81.38;;;36.42;;
21492;SDS011;10908;50.690;4.400;2023-02-11T17:00:26;82.85;;;37.72;;
21492;SDS011;10908;50.690;4.400;2023-02-11T17:02:52;92.35;;;39.63;;
21492;SDS011;10908;50.690;4.400;2023-02-11T17:05:18;86.80;;;39.65;;
21492;SDS011;10908;50.690;4.400;2023-02-11T17:07:47;76.18;;;34.25;;
21492;SDS011;10908;50.690;4.400;2023-02-11T17:10:18;74.40;;;35.90;;
21492;SDS011;10908;50.690;4.400;2023-02-11T17:12:46;72.20;;;35.13;;
21492;SDS011;10908;50.690;4.400;2023-02-11T17:15:13;75.35;;;35.17;;
21492;SDS011;10908;50.690;4.400;2023-02-11T17:17:38;77.75;;;35.33;;
21492;SDS011;10908;50.690;4.400;2023-02-11T17:20:04;76.80;;;37.30;;
21492;SDS011;10908;50.690;4.400;2023-02-11T17:22:31;77.05;;;35.38;;
21492;SDS011;10908;50.690;4.400;2023-02-11T17:24:57;81.05;;;36.90;;
21492;SDS011;10908;50.690;4.400;2023-02-11T17:27:23;75.97;;;35.72;;
21492;SDS011;10908;50.690;4.400;2023-02-11T17:29:48;82.68;;;35.97;;
21492;SDS011;10908;50.690;4.400;2023-02-11T17:32:14;77.32;;;36.40;;
21492;SDS011;10908;50.690;4.400;2023-02-11T17:34:42;82.10;;;37.30;;
21492;SDS011;10908;50.690;4.400;2023-02-11T17:37:08;86.82;;;37.58;;
21492;SDS011;10908;50.690;4.400;2023-02-11T17:39:34;79.68;;;35.75;;
21492;SDS011;10908;50.690;4.400;2023-02-11T17:42:03;80.30;;;35.90;;
21492;SDS011;10908;50.690;4.400;2023-02-11T17:44:30;82.57;;;36.58;;
21492;SDS011;10908;50.690;4.400;2023-02-11T17:46:56;79.35;;;36.83;;
21492;SDS011;10908;50.690;4.400;2023-02-11T17:49:21;88.60;;;37.45;;
21492;SDS011;10908;50.690;4.400;2023-02-11T17:51:47;83.72;;;38.42;;
21492;SDS011;10908;50.690;4.400;2023-02-11T17:54:14;85.75;;;38.15;;
21492;SDS011;10908;50.690;4.400;2023-02-11T17:56:42;94.28;;;42.38;;
21492;SDS011;10908;50.690;4.400;2023-02-11T17:59:09;89.97;;;41.38;;
21492;SDS011;10908;50.690;4.400;2023-02-11T18:01:37;85.93;;;41.35;;
21492;SDS011;10908;50.690;4.400;2023-02-11T18:04:03;89.90;;;40.05;;
21492;SDS011;10908;50.690;4.400;2023-02-11T18:06:30;95.47;;;39.47;;
21492;SDS011;10908;50.690;4.400;2023-02-11T18:08:57;99.88;;;42.85;;
21492;SDS011;10908;50.690;4.400;2023-02-11T18:11:26;92.45;;;42.80;;
21492;SDS011;10908;50.690;4.400;2023-02-11T18:13:54;89.50;;;40.65;;
21492;SDS011;10908;50.690;4.400;2023-02-11T18:16:20;98.57;;;39.95;;
21492;SDS011;10908;50.690;4.400;2023-02-11T18:18:47;84.95;;;38.58;;
21492;SDS011;10908;50.690;4.400;2023-02-11T18:21:14;87.43;;;39.40;;
21492;SDS011;10908;50.690;4.400;2023-02-11T18:23:42;83.70;;;38.60;;
21492;SDS011;10908;50.690;4.400;2023-02-11T18:26:10;89.00;;;38.88;;
21492;SDS011;10908;50.690;4.400;2023-02-11T18:28:37;85.15;;;40.40;;
21492;SDS011;10908;50.690;4.400;2023-02-11T18:31:03;91.00;;;40.58;;
21492;SDS011;10908;50.690;4.400;2023-02-11T18:33:29;83.90;;;39.42;;
21492;SDS011;10908;50.690;4.400;2023-02-11T18:35:55;98.60;;;43.15;;
21492;SDS011;10908;50.690;4.400;2023-02-11T18:38:21;92.28;;;43.22;;
21492;SDS011;10908;50.690;4.400;2023-02-11T18:40:47;95.95;;;43.15;;
21492;SDS011;10908;50.690;4.400;2023-02-11T18:43:17;96.85;;;43.53;;
21492;SDS011;10908;50.690;4.400;2023-02-11T18:45:44;95.75;;;46.42;;
21492;SDS011;10908;50.690;4.400;2023-02-11T18:48:11;109.30;;;49.58;;
21492;SDS011;10908;50.690;4.400;2023-02-11T18:50:40;105.22;;;47.00;;
21492;SDS011;10908;50.690;4.400;2023-02-11T18:53:07;96.70;;;45.70;;
21492;SDS011;10908;50.690;4.400;2023-02-11T18:55:33;96.72;;;43.80;;
21492;SDS011;10908;50.690;4.400;2023-02-11T18:57:58;100.05;;;46.95;;
21492;SDS011;10908;50.690;4.400;2023-02-11T19:00:24;99.95;;;44.63;;
21492;SDS011;10908;50.690;4.400;2023-02-11T19:02:49;96.57;;;44.55;;
21492;SDS011;10908;50.690;4.400;2023-02-11T19:05:17;101.03;;;46.20;;
21492;SDS011;10908;50.690;4.400;2023-02-11T19:07:43;108.28;;;47.05;;
21492;SDS011;10908;50.690;4.400;2023-02-11T19:10:09;104.65;;;47.15;;
21492;SDS011;10908;50.690;4.400;2023-02-11T19:12:35;106.50;;;47.47;;
21492;SDS011;10908;50.690;4.400;2023-02-11T19:15:03;99.47;;;47.97;;
21492;SDS011;10908;50.690;4.400;2023-02-11T19:17:30;103.95;;;48.67;;
21492;SDS011;10908;50.690;4.400;2023-02-11T19:19:56;103.95;;;47.83;;
21492;SDS011;10908;50.690;4.400;2023-02-11T19:22:22;105.72;;;45.72;;
21492;SDS011;10908;50.690;4.400;2023-02-11T19:24:47;102.82;;;44.80;;
21492;SDS011;10908;50.690;4.400;2023-02-11T19:27:13;103.38;;;45.17;;
21492;SDS011;10908;50.690;4.400;2023-02-11T19:29:38;102.35;;;45.35;;
21492;SDS011;10908;50.690;4.400;2023-02-11T19:32:04;106.93;;;47.17;;
21492;SDS011;10908;50.690;4.400;2023-02-11T19:34:30;105.35;;;44.03;;
21492;SDS011;10908;50.690;4.400;2023-02-11T19:36:56;100.55;;;45.45;;
21492;SDS011;10908;50.690;4.400;2023-02-11T19:39:24;109.80;;;48.03;;
21492;SDS011;10908;50.690;4.400;2023-02-11T19:41:51;113.30;;;50.20;;
21492;SDS011;10908;50.690;4.400;2023-02-11T19:44:17;102.60;;;47.33;;
21492;SDS011;10908;50.690;4.400;2023-02-11T19:46:43;104.50;;;47.80;;
21492;SDS011;10908;50.690;4.400;2023-02-11T19:49:10;109.05;;;49.13;;
21492;SDS011;10908;50.690;4.400;2023-02-11T19:51:39;106.20;;;48.92;;
21492;SDS011;10908;50.690;4.400;2023-02-11T19:54:05;102.88;;;46.50;;
21492;SDS011;10908;50.690;4.400;2023-02-11T19:56:31;101.25;;;45.28;;
21492;SDS011;10908;50.690;4.400;2023-02-11T19:58:57;98.97;;;45.50;;
21492;SDS011;10908;50.690;4.400;2023-02-11T20:01:25;100.07;;;43.22;;
21492;SDS011;10908;50.690;4.400;2023-02-11T20:03:51;96.22;;;41.90;;
21492;SDS011;10908;50.690;4.400;2023-02-11T20:06:20;96.90;;;41.22;;
21492;SDS011;10908;50.690;4.400;2023-02-11T20:08:51;99.82;;;42.33;;
21492;SDS011;10908;50.690;4.400;2023-02-11T20:11:20;105.82;;;43.88;;
21492;SDS011;10908;50.690;4.400;2023-02-11T20:13:46;97.18;;;43.50;;
21492;SDS011;10908;50.690;4.400;2023-02-11T20:16:13;99.07;;;43.78;;
21492;SDS011;10908;50.690;4.400;2023-02-11T20:18:42;94.25;;;44.75;;
21492;SDS011;10908;50.690;4.400;2023-02-11T20:21:12;100.53;;;43.78;;
21492;SDS011;10908;50.690;4.400;2023-02-11T20:23:39;98.45;;;43.13;;
21492;SDS011;10908;50.690;4.400;2023-02-11T20:26:06;99.05;;;42.85;;
21492;SDS011;10908;50.690;4.400;2023-02-11T20:28:33;97.35;;;42.28;;
21492;SDS011;10908;50.690;4.400;2023-02-11T20:30:59;99.28;;;43.58;;
21492;SDS011;10908;50.690;4.400;2023-02-11T20:33:26;110.97;;;44.60;;
21492;SDS011;10908;50.690;4.400;2023-02-11T20:35:57;102.00;;;44.95;;
21492;SDS011;10908;50.690;4.400;2023-02-11T20:38:29;103.47;;;42.88;;
21492;SDS011;10908;50.690;4.400;2023-02-11T20:40:54;98.78;;;42.85;;
21492;SDS011;10908;50.690;4.400;2023-02-11T20:43:20;114.65;;;45.30;;
21492;SDS011;10908;50.690;4.400;2023-02-11T20:45:46;108.50;;;45.17;;
21492;SDS011;10908;50.690;4.400;2023-02-11T20:48:12;103.72;;;42.90;;
21492;SDS011;10908;50.690;4.400;2023-02-11T20:50:38;103.32;;;41.25;;
21492;SDS011;10908;50.690;4.400;2023-02-11T20:53:04;109.82;;;42.65;;
21492;SDS011;10908;50.690;4.400;2023-02-11T20:55:30;112.63;;;43.80;;
21492;SDS011;10908;50.690;4.400;2023-02-11T20:57:56;113.60;;;44.95;;
21492;SDS011;10908;50.690;4.400;2023-02-11T21:00:21;113.82;;;45.88;;
21492;SDS011;10908;50.690;4.400;2023-02-11T21:02:51;107.07;;;43.58;;
21492;SDS011;10908;50.690;4.400;2023-02-11T21:05:17;111.70;;;45.30;;
21492;SDS011;10908;50.690;4.400;2023-02-11T21:07:43;98.43;;;43.45;;
21492;SDS011;10908;50.690;4.400;2023-02-11T21:10:09;112.80;;;45.60;;
21492;SDS011;10908;50.690;4.400;2023-02-11T21:12:35;108.80;;;46.75;;
21492;SDS011;10908;50.690;4.400;2023-02-11T21:15:00;109.35;;;47.80;;
21492;SDS011;10908;50.690;4.400;2023-02-11T21:17:29;109.05;;;44.42;;
21492;SDS011;10908;50.690;4.400;2023-02-11T21:19:55;110.82;;;45.75;;
21492;SDS011;10908;50.690;4.400;2023-02-11T21:22:21;106.22;;;44.05;;
21492;SDS011;10908;50.690;4.400;2023-02-11T21:24:46;102.03;;;42.80;;
21492;SDS011;10908;50.690;4.400;2023-02-11T21:27:12;107.18;;;45.20;;
21492;SDS011;10908;50.690;4.400;2023-02-11T21:29:39;108.45;;;46.35;;
21492;SDS011;10908;50.690;4.400;2023-02-11T21:32:04;116.07;;;44.42;;
21492;SDS011;10908;50.690;4.400;2023-02-11T21:34:30;106.82;;;44.80;;
21492;SDS011;10908;50.690;4.400;2023-02-11T21:36:56;117.20;;;44.75;;
21492;SDS011;10908;50.690;4.400;2023-02-11T21:39:21;100.30;;;42.42;;
21492;SDS011;10908;50.690;4.400;2023-02-11T21:41:47;104.10;;;43.53;;
21492;SDS011;10908;50.690;4.400;2023-02-11T21:44:13;104.32;;;41.85;;
21492;SDS011;10908;50.690;4.400;2023-02-11T21:46:38;98.15;;;42.10;;
21492;SDS011;10908;50.690;4.400;2023-02-11T21:49:04;97.18;;;42.92;;
21492;SDS011;10908;50.690;4.400;2023-02-11T21:51:30;99.20;;;44.38;;
21492;SDS011;10908;50.690;4.400;2023-02-11T21:54:00;94.30;;;41.58;;
21492;SDS011;10908;50.690;4.400;2023-02-11T21:56:26;100.00;;;44.03;;
21492;SDS011;10908;50.690;4.400;2023-02-11T21:58:54;105.85;;;43.28;;
21492;SDS011;10908;50.690;4.400;2023-02-11T22:01:22;105.05;;;43.72;;
21492;SDS011;10908;50.690;4.400;2023-02-11T22:03:51;103.13;;;43.63;;
21492;SDS011;10908;50.690;4.400;2023-02-11T22:06:18;98.72;;;42.72;;
21492;SDS011;10908;50.690;4.400;2023-02-11T22:08:50;103.32;;;42.88;;
21492;SDS011;10908;50.690;4.400;2023-02-11T22:11:17;95.80;;;41.97;;
21492;SDS011;10908;50.690;4.400;2023-02-11T22:13:44;96.18;;;41.65;;
21492;SDS011;10908;50.690;4.400;2023-02-11T22:16:13;109.22;;;45.15;;
21492;SDS011;10908;50.690;4.400;2023-02-11T22:18:40;103.72;;;43.30;;
21492;SDS011;10908;50.690;4.400;2023-02-11T22:21:10;108.70;;;43.88;;
21492;SDS011;10908;50.690;4.400;2023-02-11T22:23:38;98.63;;;43.40;;
21492;SDS011;10908;50.690;4.400;2023-02-11T22:26:08;96.82;;;43.35;;
21492;SDS011;10908;50.690;4.400;2023-02-11T22:28:44;99.78;;;42.85;;
21492;SDS011;10908;50.690;4.400;2023-02-11T22:31:14;99.93;;;42.85;;
21492;SDS011;10908;50.690;4.400;2023-02-11T22:33:42;99.72;;;43.20;;
21492;SDS011;10908;50.690;4.400;2023-02-11T22:36:11;95.35;;;42.50;;
21492;SDS011;10908;50.690;4.400;2023-02-11T22:38:40;96.80;;;44.17;;
21492;SDS011;10908;50.690;4.400;2023-02-11T22:41:06;97.30;;;44.47;;
21492;SDS011;10908;50.690;4.400;2023-02-11T22:43:33;107.70;;;46.70;;
21492;SDS011;10908;50.690;4.400;2023-02-11T22:46:00;105.55;;;45.80;;
21492;SDS011;10908;50.690;4.400;2023-02-11T22:48:26;98.68;;;44.08;;
21492;SDS011;10908;50.690;4.400;2023-02-11T22:50:52;107.00;;;45.00;;
21492;SDS011;10908;50.690;4.400;2023-02-11T22:53:17;105.40;;;44.00;;
21492;SDS011;10908;50.690;4.400;2023-02-11T22:55:43;106.45;;;44.72;;
21492;SDS011;10908;50.690;4.400;2023-02-11T22:58:09;106.47;;;44.58;;
21492;SDS011;10908;50.690;4.400;2023-02-11T23:00:36;105.40;;;44.58;;
21492;SDS011;10908;50.690;4.400;2023-02-11T23:03:04;98.57;;;44.80;;
21492;SDS011;10908;50.690;4.400;2023-02-11T23:05:36;101.53;;;44.10;;
21492;SDS011;10908;50.690;4.400;2023-02-11T23:08:06;106.97;;;44.97;;
21492;SDS011;10908;50.690;4.400;2023-02-11T23:10:34;113.15;;;46.35;;
21492;SDS011;10908;50.690;4.400;2023-02-11T23:13:01;111.28;;;47.05;;
21492;SDS011;10908;50.690;4.400;2023-02-11T23:15:27;109.38;;;45.45;;
21492;SDS011;10908;50.690;4.400;2023-02-11T23:17:53;103.45;;;45.15;;
21492;SDS011;10908;50.690;4.400;2023-02-11T23:20:19;100.45;;;45.47;;
21492;SDS011;10908;50.690;4.400;2023-02-11T23:22:44;112.22;;;47.70;;
21492;SDS011;10908;50.690;4.400;2023-02-11T23:25:10;106.60;;;44.95;;
21492;SDS011;10908;50.690;4.400;2023-02-11T23:27:36;106.47;;;46.22;;
21492;SDS011;10908;50.690;4.400;2023-02-11T23:30:01;100.13;;;44.50;;
21492;SDS011;10908;50.690;4.400;2023-02-11T23:32:28;104.70;;;45.20;;
21492;SDS011;10908;50.690;4.400;2023-02-11T23:34:54;101.88;;;44.80;;
21492;SDS011;10908;50.690;4.400;2023-02-11T23:37:19;106.03;;;44.03;;
21492;SDS011;10908;50.690;4.400;2023-02-11T23:39:45;100.28;;;43.85;;
21492;SDS011;10908;50.690;4.400;2023-02-11T23:42:11;103.32;;;44.42;;
21492;SDS011;10908;50.690;4.400;2023-02-11T23:44:36;104.75;;;44.78;;
21492;SDS011;10908;50.690;4.400;2023-02-11T23:47:03;102.95;;;42.97;;
21492;SDS011;10908;50.690;4.400;2023-02-11T23:49:28;106.47;;;44.20;;
21492;SDS011;10908;50.690;4.400;2023-02-11T23:51:54;101.25;;;44.25;;
21492;SDS011;10908;50.690;4.400;2023-02-11T23:54:20;110.70;;;47.53;;
21492;SDS011;10908;50.690;4.400;2023-02-11T23:56:45;106.68;;;45.33;;
21492;SDS011;10908;50.690;4.400;2023-02-11T23:59:11;91.20;;;40.88;;
